sensor_id;sensor_type;location;lat;lon;timestamp;P1;durP1;ratioP1;P2;durP2;ratioP2
8944;SDS011;4507;40.232;29.132;2022-12-10T00:00:28;287.90;;;209.97;;
8944;SDS011;4507;40.232;29.132;2022-12-10T00:02:57;278.23;;;203.77;;
8944;SDS011;4507;40.232;29.132;2022-12-10T00:05:26;260.80;;;194.03;;
8944;SDS011;4507;40.232;29.132;2022-12-10T00:07:55;425.00;;;308.57;;
8944;SDS011;4507;40.232;29.132;2022-12-10T00:10:24;273.07;;;211.93;;
8944;SDS011;4507;40.232;29.132;2022-12-10T00:12:53;276.20;;;219.67;;
8944;SDS011;4507;40.232;29.132;2022-12-10T00:15:23;288.40;;;222.60;;
8944;SDS011;4507;40.232;29.132;2022-12-10T00:17:53;428.67;;;343.80;;
8944;SDS011;4507;40.232;29.132;2022-12-10T00:20:21;327.67;;;250.93;;
8944;SDS011;4507;40.232;29.132;2022-12-10T00:22:50;313.93;;;232.17;;
8944;SDS011;4507;40.232;29.132;2022-12-10T00:25:19;247.00;;;185.10;;
8944;SDS011;4507;40.232;29.132;2022-12-10T00:27:48;224.97;;;164.83;;
8944;SDS011;4507;40.232;29.132;2022-12-10T00:30:17;238.00;;;167.67;;
8944;SDS011;4507;40.232;29.132;2022-12-10T00:32:48;197.97;;;144.27;;
8944;SDS011;4507;40.232;29.132;2022-12-10T00:35:17;152.97;;;107.37;;
8944;SDS011;4507;40.232;29.132;2022-12-10T00:37:46;110.03;;;84.50;;
8944;SDS011;4507;40.232;29.132;2022-12-10T00:40:15;123.73;;;85.93;;
8944;SDS011;4507;40.232;29.132;2022-12-10T00:42:44;105.60;;;69.00;;
8944;SDS011;4507;40.232;29.132;2022-12-10T00:45:13;113.07;;;76.87;;
8944;SDS011;4507;40.232;29.132;2022-12-10T00:47:42;106.83;;;72.73;;
8944;SDS011;4507;40.232;29.132;2022-12-10T00:50:12;101.77;;;67.30;;
8944;SDS011;4507;40.232;29.132;2022-12-10T00:52:41;98.33;;;67.97;;
8944;SDS011;4507;40.232;29.132;2022-12-10T00:55:10;109.17;;;69.90;;
8944;SDS011;4507;40.232;29.132;2022-12-10T00:57:39;108.70;;;75.13;;
8944;SDS011;4507;40.232;29.132;2022-12-10T01:00:08;127.53;;;80.63;;
8944;SDS011;4507;40.232;29.132;2022-12-10T01:02:40;117.83;;;78.23;;
8944;SDS011;4507;40.232;29.132;2022-12-10T01:05:09;124.13;;;87.20;;
8944;SDS011;4507;40.232;29.132;2022-12-10T01:07:40;121.10;;;91.43;;
8944;SDS011;4507;40.232;29.132;2022-12-10T01:10:09;125.17;;;97.47;;
8944;SDS011;4507;40.232;29.132;2022-12-10T01:12:38;131.83;;;98.10;;
8944;SDS011;4507;40.232;29.132;2022-12-10T01:15:26;130.10;;;98.77;;
8944;SDS011;4507;40.232;29.132;2022-12-10T01:17:55;132.33;;;100.73;;
8944;SDS011;4507;40.232;29.132;2022-12-10T01:20:24;145.17;;;102.03;;
8944;SDS011;4507;40.232;29.132;2022-12-10T01:22:55;124.17;;;90.67;;
8944;SDS011;4507;40.232;29.132;2022-12-10T01:25:24;126.00;;;88.27;;
8944;SDS011;4507;40.232;29.132;2022-12-10T01:27:53;120.53;;;88.30;;
8944;SDS011;4507;40.232;29.132;2022-12-10T01:30:23;116.17;;;84.53;;
8944;SDS011;4507;40.232;29.132;2022-12-10T01:32:52;121.47;;;86.13;;
8944;SDS011;4507;40.232;29.132;2022-12-10T01:35:21;121.27;;;92.07;;
8944;SDS011;4507;40.232;29.132;2022-12-10T01:37:49;96.07;;;70.03;;
8944;SDS011;4507;40.232;29.132;2022-12-10T01:40:20;78.13;;;59.50;;
8944;SDS011;4507;40.232;29.132;2022-12-10T01:42:50;82.33;;;58.87;;
8944;SDS011;4507;40.232;29.132;2022-12-10T01:45:18;74.37;;;53.80;;
8944;SDS011;4507;40.232;29.132;2022-12-10T01:47:48;68.13;;;49.93;;
8944;SDS011;4507;40.232;29.132;2022-12-10T01:50:17;61.90;;;48.57;;
8944;SDS011;4507;40.232;29.132;2022-12-10T01:52:46;105.97;;;87.40;;
8944;SDS011;4507;40.232;29.132;2022-12-10T01:58:28;127.33;;;102.10;;
8944;SDS011;4507;40.232;29.132;2022-12-10T02:01:00;114.77;;;95.60;;
8944;SDS011;4507;40.232;29.132;2022-12-10T02:03:57;97.40;;;74.60;;
8944;SDS011;4507;40.232;29.132;2022-12-10T02:06:45;104.37;;;69.37;;
8944;SDS011;4507;40.232;29.132;2022-12-10T02:09:23;96.07;;;64.50;;
8944;SDS011;4507;40.232;29.132;2022-12-10T02:12:01;109.40;;;72.60;;
8944;SDS011;4507;40.232;29.132;2022-12-10T02:14:37;104.20;;;73.23;;
8944;SDS011;4507;40.232;29.132;2022-12-10T02:17:12;99.03;;;62.50;;
8944;SDS011;4507;40.232;29.132;2022-12-10T02:19:50;93.93;;;61.07;;
8944;SDS011;4507;40.232;29.132;2022-12-10T02:22:36;72.13;;;50.27;;
8944;SDS011;4507;40.232;29.132;2022-12-10T02:25:08;94.83;;;60.93;;
8944;SDS011;4507;40.232;29.132;2022-12-10T02:27:44;90.40;;;59.07;;
8944;SDS011;4507;40.232;29.132;2022-12-10T02:30:18;102.90;;;68.63;;
8944;SDS011;4507;40.232;29.132;2022-12-10T02:32:48;111.10;;;80.03;;
8944;SDS011;4507;40.232;29.132;2022-12-10T02:35:20;125.03;;;90.47;;
8944;SDS011;4507;40.232;29.132;2022-12-10T02:38:11;130.87;;;92.33;;
8944;SDS011;4507;40.232;29.132;2022-12-10T02:40:45;128.17;;;91.30;;
8944;SDS011;4507;40.232;29.132;2022-12-10T02:43:17;123.80;;;88.00;;
8944;SDS011;4507;40.232;29.132;2022-12-10T02:45:48;126.57;;;95.87;;
8944;SDS011;4507;40.232;29.132;2022-12-10T02:48:19;154.00;;;120.53;;
8944;SDS011;4507;40.232;29.132;2022-12-10T02:50:48;167.93;;;132.50;;
8944;SDS011;4507;40.232;29.132;2022-12-10T02:53:18;159.57;;;129.00;;
8944;SDS011;4507;40.232;29.132;2022-12-10T02:55:50;144.23;;;104.33;;
8944;SDS011;4507;40.232;29.132;2022-12-10T02:58:40;123.23;;;83.57;;
8944;SDS011;4507;40.232;29.132;2022-12-10T03:01:19;119.73;;;84.30;;
8944;SDS011;4507;40.232;29.132;2022-12-10T03:03:55;135.30;;;97.67;;
8944;SDS011;4507;40.232;29.132;2022-12-10T03:06:30;129.57;;;92.80;;
8944;SDS011;4507;40.232;29.132;2022-12-10T03:09:03;138.90;;;95.17;;
8944;SDS011;4507;40.232;29.132;2022-12-10T03:11:35;132.23;;;96.57;;
8944;SDS011;4507;40.232;29.132;2022-12-10T03:14:09;148.80;;;101.27;;
8944;SDS011;4507;40.232;29.132;2022-12-10T03:16:44;145.50;;;102.80;;
8944;SDS011;4507;40.232;29.132;2022-12-10T03:19:16;170.33;;;107.43;;
8944;SDS011;4507;40.232;29.132;2022-12-10T03:21:49;145.63;;;98.30;;
8944;SDS011;4507;40.232;29.132;2022-12-10T03:24:39;147.13;;;99.40;;
8944;SDS011;4507;40.232;29.132;2022-12-10T03:27:11;165.83;;;105.80;;
8944;SDS011;4507;40.232;29.132;2022-12-10T03:29:42;204.80;;;127.67;;
8944;SDS011;4507;40.232;29.132;2022-12-10T03:32:16;296.67;;;176.13;;
8944;SDS011;4507;40.232;29.132;2022-12-10T03:34:48;244.33;;;147.50;;
8944;SDS011;4507;40.232;29.132;2022-12-10T03:37:19;250.63;;;149.20;;
8944;SDS011;4507;40.232;29.132;2022-12-10T03:39:50;218.07;;;137.63;;
8944;SDS011;4507;40.232;29.132;2022-12-10T03:42:19;215.80;;;135.27;;
8944;SDS011;4507;40.232;29.132;2022-12-10T03:44:49;155.17;;;109.27;;
8944;SDS011;4507;40.232;29.132;2022-12-10T03:47:20;155.30;;;113.70;;
8944;SDS011;4507;40.232;29.132;2022-12-10T03:49:49;182.27;;;124.07;;
8944;SDS011;4507;40.232;29.132;2022-12-10T03:52:19;158.77;;;107.10;;
8944;SDS011;4507;40.232;29.132;2022-12-10T03:54:48;133.07;;;96.47;;
8944;SDS011;4507;40.232;29.132;2022-12-10T03:57:17;130.60;;;98.50;;
8944;SDS011;4507;40.232;29.132;2022-12-10T03:59:45;135.67;;;100.10;;
8944;SDS011;4507;40.232;29.132;2022-12-10T04:02:14;130.17;;;102.03;;
8944;SDS011;4507;40.232;29.132;2022-12-10T04:04:45;134.27;;;103.47;;
8944;SDS011;4507;40.232;29.132;2022-12-10T04:07:14;137.40;;;94.83;;
8944;SDS011;4507;40.232;29.132;2022-12-10T04:09:42;131.10;;;95.57;;
8944;SDS011;4507;40.232;29.132;2022-12-10T04:12:11;135.80;;;100.63;;
8944;SDS011;4507;40.232;29.132;2022-12-10T04:14:40;160.80;;;100.63;;
8944;SDS011;4507;40.232;29.132;2022-12-10T04:17:27;142.13;;;95.00;;
8944;SDS011;4507;40.232;29.132;2022-12-10T04:19:57;181.20;;;102.57;;
8944;SDS011;4507;40.232;29.132;2022-12-10T04:22:26;137.73;;;98.73;;
8944;SDS011;4507;40.232;29.132;2022-12-10T04:25:13;127.67;;;96.57;;
8944;SDS011;4507;40.232;29.132;2022-12-10T04:27:59;137.87;;;102.70;;
8944;SDS011;4507;40.232;29.132;2022-12-10T04:30:28;141.77;;;107.67;;
8944;SDS011;4507;40.232;29.132;2022-12-10T04:32:57;135.23;;;97.60;;
8944;SDS011;4507;40.232;29.132;2022-12-10T04:35:27;151.33;;;108.00;;
8944;SDS011;4507;40.232;29.132;2022-12-10T04:37:56;180.00;;;121.77;;
8944;SDS011;4507;40.232;29.132;2022-12-10T04:40:26;177.97;;;135.57;;
8944;SDS011;4507;40.232;29.132;2022-12-10T04:42:54;216.63;;;159.60;;
8944;SDS011;4507;40.232;29.132;2022-12-10T04:45:23;136.23;;;99.40;;
8944;SDS011;4507;40.232;29.132;2022-12-10T04:47:52;130.03;;;89.77;;
8944;SDS011;4507;40.232;29.132;2022-12-10T04:50:22;97.80;;;66.93;;
8944;SDS011;4507;40.232;29.132;2022-12-10T04:53:11;116.53;;;70.20;;
8944;SDS011;4507;40.232;29.132;2022-12-10T04:55:40;94.57;;;67.80;;
8944;SDS011;4507;40.232;29.132;2022-12-10T04:58:09;103.70;;;63.20;;
8944;SDS011;4507;40.232;29.132;2022-12-10T05:00:39;84.30;;;56.13;;
8944;SDS011;4507;40.232;29.132;2022-12-10T05:03:08;122.40;;;65.97;;
8944;SDS011;4507;40.232;29.132;2022-12-10T05:05:38;133.33;;;84.90;;
8944;SDS011;4507;40.232;29.132;2022-12-10T05:08:07;144.70;;;96.67;;
8944;SDS011;4507;40.232;29.132;2022-12-10T05:10:38;146.50;;;102.77;;
8944;SDS011;4507;40.232;29.132;2022-12-10T05:13:07;133.13;;;96.20;;
8944;SDS011;4507;40.232;29.132;2022-12-10T05:15:37;148.80;;;96.70;;
8944;SDS011;4507;40.232;29.132;2022-12-10T05:18:06;141.97;;;97.50;;
8944;SDS011;4507;40.232;29.132;2022-12-10T05:20:35;115.67;;;79.20;;
8944;SDS011;4507;40.232;29.132;2022-12-10T05:23:04;118.00;;;80.80;;
8944;SDS011;4507;40.232;29.132;2022-12-10T05:25:58;120.37;;;76.27;;
8944;SDS011;4507;40.232;29.132;2022-12-10T05:28:28;99.87;;;72.93;;
8944;SDS011;4507;40.232;29.132;2022-12-10T05:30:58;105.50;;;71.73;;
8944;SDS011;4507;40.232;29.132;2022-12-10T05:33:27;90.67;;;61.27;;
8944;SDS011;4507;40.232;29.132;2022-12-10T05:35:58;78.90;;;51.57;;
8944;SDS011;4507;40.232;29.132;2022-12-10T05:38:29;93.10;;;57.23;;
8944;SDS011;4507;40.232;29.132;2022-12-10T05:41:02;95.13;;;56.63;;
8944;SDS011;4507;40.232;29.132;2022-12-10T05:43:31;91.63;;;58.40;;
8944;SDS011;4507;40.232;29.132;2022-12-10T05:46:00;95.83;;;66.13;;
8944;SDS011;4507;40.232;29.132;2022-12-10T05:48:30;129.37;;;85.03;;
8944;SDS011;4507;40.232;29.132;2022-12-10T05:51:02;130.43;;;88.83;;
8944;SDS011;4507;40.232;29.132;2022-12-10T05:53:32;118.13;;;81.43;;
8944;SDS011;4507;40.232;29.132;2022-12-10T05:56:04;112.63;;;67.20;;
8944;SDS011;4507;40.232;29.132;2022-12-10T05:58:35;105.90;;;63.53;;
8944;SDS011;4507;40.232;29.132;2022-12-10T06:01:05;87.27;;;53.20;;
8944;SDS011;4507;40.232;29.132;2022-12-10T06:03:36;80.20;;;52.17;;
8944;SDS011;4507;40.232;29.132;2022-12-10T06:06:06;107.27;;;53.73;;
8944;SDS011;4507;40.232;29.132;2022-12-10T06:08:35;83.07;;;46.83;;
8944;SDS011;4507;40.232;29.132;2022-12-10T06:11:08;82.10;;;50.67;;
8944;SDS011;4507;40.232;29.132;2022-12-10T06:13:40;75.10;;;49.90;;
8944;SDS011;4507;40.232;29.132;2022-12-10T06:16:10;97.87;;;50.60;;
8944;SDS011;4507;40.232;29.132;2022-12-10T06:18:40;107.53;;;51.40;;
8944;SDS011;4507;40.232;29.132;2022-12-10T06:21:10;112.07;;;49.53;;
8944;SDS011;4507;40.232;29.132;2022-12-10T06:23:41;89.03;;;47.73;;
8944;SDS011;4507;40.232;29.132;2022-12-10T06:26:12;104.70;;;47.63;;
8944;SDS011;4507;40.232;29.132;2022-12-10T06:28:43;105.40;;;51.70;;
8944;SDS011;4507;40.232;29.132;2022-12-10T06:31:13;119.03;;;75.00;;
8944;SDS011;4507;40.232;29.132;2022-12-10T06:33:43;177.23;;;73.63;;
8944;SDS011;4507;40.232;29.132;2022-12-10T06:36:13;110.53;;;63.37;;
8944;SDS011;4507;40.232;29.132;2022-12-10T06:38:44;145.87;;;96.47;;
8944;SDS011;4507;40.232;29.132;2022-12-10T06:41:15;143.40;;;89.23;;
8944;SDS011;4507;40.232;29.132;2022-12-10T06:43:47;149.77;;;88.13;;
8944;SDS011;4507;40.232;29.132;2022-12-10T06:46:35;146.77;;;96.50;;
8944;SDS011;4507;40.232;29.132;2022-12-10T06:49:04;165.50;;;107.93;;
8944;SDS011;4507;40.232;29.132;2022-12-10T06:51:34;192.10;;;102.87;;
8944;SDS011;4507;40.232;29.132;2022-12-10T06:54:05;169.07;;;99.03;;
8944;SDS011;4507;40.232;29.132;2022-12-10T06:56:35;158.73;;;73.00;;
8944;SDS011;4507;40.232;29.132;2022-12-10T06:59:04;146.77;;;75.07;;
8944;SDS011;4507;40.232;29.132;2022-12-10T07:01:34;147.67;;;75.50;;
8944;SDS011;4507;40.232;29.132;2022-12-10T07:04:07;204.43;;;81.57;;
8944;SDS011;4507;40.232;29.132;2022-12-10T07:06:37;118.67;;;67.83;;
8944;SDS011;4507;40.232;29.132;2022-12-10T07:09:06;115.10;;;65.60;;
8944;SDS011;4507;40.232;29.132;2022-12-10T07:11:37;89.50;;;51.57;;
8944;SDS011;4507;40.232;29.132;2022-12-10T07:14:07;105.50;;;52.07;;
8944;SDS011;4507;40.232;29.132;2022-12-10T07:16:38;74.83;;;38.27;;
8944;SDS011;4507;40.232;29.132;2022-12-10T07:19:08;128.20;;;74.40;;
8944;SDS011;4507;40.232;29.132;2022-12-10T07:21:39;78.67;;;52.77;;
8944;SDS011;4507;40.232;29.132;2022-12-10T07:24:11;65.90;;;41.67;;
8944;SDS011;4507;40.232;29.132;2022-12-10T07:26:44;113.20;;;75.53;;
8944;SDS011;4507;40.232;29.132;2022-12-10T07:29:14;68.13;;;48.73;;
8944;SDS011;4507;40.232;29.132;2022-12-10T07:31:44;84.20;;;43.47;;
8944;SDS011;4507;40.232;29.132;2022-12-10T07:34:15;82.63;;;46.07;;
8944;SDS011;4507;40.232;29.132;2022-12-10T07:36:43;81.53;;;45.83;;
8944;SDS011;4507;40.232;29.132;2022-12-10T07:39:12;73.00;;;42.37;;
8944;SDS011;4507;40.232;29.132;2022-12-10T07:41:46;117.83;;;45.70;;
8944;SDS011;4507;40.232;29.132;2022-12-10T07:44:16;112.17;;;43.40;;
8944;SDS011;4507;40.232;29.132;2022-12-10T07:46:48;86.60;;;38.13;;
8944;SDS011;4507;40.232;29.132;2022-12-10T07:49:18;84.73;;;36.63;;
8944;SDS011;4507;40.232;29.132;2022-12-10T07:51:48;64.23;;;34.23;;
8944;SDS011;4507;40.232;29.132;2022-12-10T07:54:18;67.80;;;33.23;;
8944;SDS011;4507;40.232;29.132;2022-12-10T07:56:49;51.37;;;30.03;;
8944;SDS011;4507;40.232;29.132;2022-12-10T07:59:18;50.30;;;24.27;;
8944;SDS011;4507;40.232;29.132;2022-12-10T08:02:07;45.80;;;22.37;;
8944;SDS011;4507;40.232;29.132;2022-12-10T08:04:36;55.63;;;20.83;;
8944;SDS011;4507;40.232;29.132;2022-12-10T08:07:05;52.77;;;18.73;;
8944;SDS011;4507;40.232;29.132;2022-12-10T08:09:35;50.30;;;16.40;;
8944;SDS011;4507;40.232;29.132;2022-12-10T08:12:07;53.40;;;16.67;;
8944;SDS011;4507;40.232;29.132;2022-12-10T08:14:37;42.17;;;16.07;;
8944;SDS011;4507;40.232;29.132;2022-12-10T08:17:06;42.97;;;16.90;;
8944;SDS011;4507;40.232;29.132;2022-12-10T08:19:35;41.67;;;17.00;;
8944;SDS011;4507;40.232;29.132;2022-12-10T08:22:04;53.13;;;22.57;;
8944;SDS011;4507;40.232;29.132;2022-12-10T08:24:33;75.87;;;24.13;;
8944;SDS011;4507;40.232;29.132;2022-12-10T08:27:02;82.77;;;23.50;;
8944;SDS011;4507;40.232;29.132;2022-12-10T08:29:33;37.27;;;16.33;;
8944;SDS011;4507;40.232;29.132;2022-12-10T08:32:03;61.07;;;18.60;;
8944;SDS011;4507;40.232;29.132;2022-12-10T08:34:32;71.90;;;19.17;;
8944;SDS011;4507;40.232;29.132;2022-12-10T08:37:01;73.77;;;21.93;;
8944;SDS011;4507;40.232;29.132;2022-12-10T08:39:37;68.33;;;19.33;;
8944;SDS011;4507;40.232;29.132;2022-12-10T08:42:07;65.73;;;19.00;;
8944;SDS011;4507;40.232;29.132;2022-12-10T08:44:37;37.93;;;13.07;;
8944;SDS011;4507;40.232;29.132;2022-12-10T08:47:07;39.00;;;11.87;;
8944;SDS011;4507;40.232;29.132;2022-12-10T08:49:36;44.73;;;12.30;;
8944;SDS011;4507;40.232;29.132;2022-12-10T08:52:05;37.80;;;12.40;;
8944;SDS011;4507;40.232;29.132;2022-12-10T08:54:34;53.97;;;16.00;;
8944;SDS011;4507;40.232;29.132;2022-12-10T08:57:03;36.33;;;12.57;;
8944;SDS011;4507;40.232;29.132;2022-12-10T08:59:32;29.03;;;11.47;;
8944;SDS011;4507;40.232;29.132;2022-12-10T09:02:04;32.17;;;12.17;;
8944;SDS011;4507;40.232;29.132;2022-12-10T09:04:33;32.27;;;13.17;;
8944;SDS011;4507;40.232;29.132;2022-12-10T09:07:03;37.10;;;15.63;;
8944;SDS011;4507;40.232;29.132;2022-12-10T09:09:38;35.23;;;16.53;;
8944;SDS011;4507;40.232;29.132;2022-12-10T09:12:07;65.50;;;46.00;;
8944;SDS011;4507;40.232;29.132;2022-12-10T09:14:36;59.13;;;43.07;;
8944;SDS011;4507;40.232;29.132;2022-12-10T09:17:08;62.87;;;43.43;;
8944;SDS011;4507;40.232;29.132;2022-12-10T09:19:38;55.03;;;36.37;;
8944;SDS011;4507;40.232;29.132;2022-12-10T09:22:07;63.00;;;36.90;;
8944;SDS011;4507;40.232;29.132;2022-12-10T09:24:36;43.00;;;27.00;;
8944;SDS011;4507;40.232;29.132;2022-12-10T09:27:23;42.47;;;23.93;;
8944;SDS011;4507;40.232;29.132;2022-12-10T09:29:53;36.77;;;20.97;;
8944;SDS011;4507;40.232;29.132;2022-12-10T09:32:23;42.33;;;28.23;;
8944;SDS011;4507;40.232;29.132;2022-12-10T09:34:53;40.63;;;23.37;;
8944;SDS011;4507;40.232;29.132;2022-12-10T09:37:22;39.77;;;20.70;;
8944;SDS011;4507;40.232;29.132;2022-12-10T09:39:51;40.17;;;18.70;;
8944;SDS011;4507;40.232;29.132;2022-12-10T09:42:24;32.20;;;18.60;;
8944;SDS011;4507;40.232;29.132;2022-12-10T09:45:03;24.73;;;12.40;;
8944;SDS011;4507;40.232;29.132;2022-12-10T09:47:43;27.93;;;11.87;;
8944;SDS011;4507;40.232;29.132;2022-12-10T09:50:18;25.80;;;11.47;;
8944;SDS011;4507;40.232;29.132;2022-12-10T09:53:11;31.17;;;11.87;;
8944;SDS011;4507;40.232;29.132;2022-12-10T09:55:45;29.47;;;12.20;;
8944;SDS011;4507;40.232;29.132;2022-12-10T09:58:17;31.43;;;11.80;;
8944;SDS011;4507;40.232;29.132;2022-12-10T10:00:56;32.97;;;12.33;;
8944;SDS011;4507;40.232;29.132;2022-12-10T10:03:28;34.90;;;15.00;;
8944;SDS011;4507;40.232;29.132;2022-12-10T10:06:03;22.97;;;13.47;;
8944;SDS011;4507;40.232;29.132;2022-12-10T10:08:38;37.57;;;19.77;;
8944;SDS011;4507;40.232;29.132;2022-12-10T10:11:12;34.67;;;16.77;;
8944;SDS011;4507;40.232;29.132;2022-12-10T10:13:47;48.83;;;15.83;;
8944;SDS011;4507;40.232;29.132;2022-12-10T10:16:22;28.50;;;12.07;;
8944;SDS011;4507;40.232;29.132;2022-12-10T10:19:13;65.27;;;15.10;;
8944;SDS011;4507;40.232;29.132;2022-12-10T10:21:46;52.37;;;13.87;;
8944;SDS011;4507;40.232;29.132;2022-12-10T10:24:16;41.37;;;13.40;;
8944;SDS011;4507;40.232;29.132;2022-12-10T10:26:48;37.60;;;14.30;;
8944;SDS011;4507;40.232;29.132;2022-12-10T10:29:20;36.67;;;13.67;;
8944;SDS011;4507;40.232;29.132;2022-12-10T10:34:46;42.83;;;17.60;;
8944;SDS011;4507;40.232;29.132;2022-12-10T10:37:21;35.87;;;13.27;;
8944;SDS011;4507;40.232;29.132;2022-12-10T10:39:54;31.60;;;11.57;;
8944;SDS011;4507;40.232;29.132;2022-12-10T10:42:27;34.57;;;12.53;;
8944;SDS011;4507;40.232;29.132;2022-12-10T10:45:03;48.90;;;12.90;;
8944;SDS011;4507;40.232;29.132;2022-12-10T10:47:34;43.47;;;13.10;;
8944;SDS011;4507;40.232;29.132;2022-12-10T10:50:12;42.83;;;13.93;;
8944;SDS011;4507;40.232;29.132;2022-12-10T10:52:52;37.50;;;12.23;;
8944;SDS011;4507;40.232;29.132;2022-12-10T10:55:30;47.03;;;13.13;;
8944;SDS011;4507;40.232;29.132;2022-12-10T10:58:02;40.10;;;13.50;;
8944;SDS011;4507;40.232;29.132;2022-12-10T11:00:31;41.20;;;12.87;;
8944;SDS011;4507;40.232;29.132;2022-12-10T11:03:00;36.57;;;16.63;;
8944;SDS011;4507;40.232;29.132;2022-12-10T11:05:35;25.13;;;12.70;;
8944;SDS011;4507;40.232;29.132;2022-12-10T11:08:06;23.07;;;11.43;;
8944;SDS011;4507;40.232;29.132;2022-12-10T11:10:46;42.17;;;13.20;;
8944;SDS011;4507;40.232;29.132;2022-12-10T11:13:22;37.20;;;14.93;;
8944;SDS011;4507;40.232;29.132;2022-12-10T11:15:55;31.60;;;14.50;;
8944;SDS011;4507;40.232;29.132;2022-12-10T11:18:29;49.17;;;15.70;;
8944;SDS011;4507;40.232;29.132;2022-12-10T11:21:02;46.20;;;26.63;;
8944;SDS011;4507;40.232;29.132;2022-12-10T11:23:52;51.20;;;22.67;;
8944;SDS011;4507;40.232;29.132;2022-12-10T11:29:27;101.37;;;22.97;;
8944;SDS011;4507;40.232;29.132;2022-12-10T11:32:11;42.07;;;13.40;;
8944;SDS011;4507;40.232;29.132;2022-12-10T11:35:10;33.37;;;10.93;;
8944;SDS011;4507;40.232;29.132;2022-12-10T11:37:46;43.57;;;11.93;;
8944;SDS011;4507;40.232;29.132;2022-12-10T11:40:28;29.93;;;11.07;;
8944;SDS011;4507;40.232;29.132;2022-12-10T11:43:07;37.17;;;11.00;;
8944;SDS011;4507;40.232;29.132;2022-12-10T11:45:55;34.00;;;11.10;;
8944;SDS011;4507;40.232;29.132;2022-12-10T11:48:39;61.47;;;18.97;;
8944;SDS011;4507;40.232;29.132;2022-12-10T11:51:17;57.20;;;27.07;;
8944;SDS011;4507;40.232;29.132;2022-12-10T11:54:03;46.40;;;25.63;;
8944;SDS011;4507;40.232;29.132;2022-12-10T11:56:54;42.73;;;25.07;;
8944;SDS011;4507;40.232;29.132;2022-12-10T11:59:32;51.73;;;24.53;;
8944;SDS011;4507;40.232;29.132;2022-12-10T12:02:31;52.47;;;19.73;;
8944;SDS011;4507;40.232;29.132;2022-12-10T12:05:25;39.30;;;15.60;;
8944;SDS011;4507;40.232;29.132;2022-12-10T12:08:24;35.63;;;16.77;;
8944;SDS011;4507;40.232;29.132;2022-12-10T12:11:06;52.00;;;18.27;;
8944;SDS011;4507;40.232;29.132;2022-12-10T12:13:56;58.67;;;21.83;;
8944;SDS011;4507;40.232;29.132;2022-12-10T12:16:30;71.37;;;35.20;;
8944;SDS011;4507;40.232;29.132;2022-12-10T12:19:04;49.67;;;19.07;;
8944;SDS011;4507;40.232;29.132;2022-12-10T12:21:39;43.50;;;14.30;;
8944;SDS011;4507;40.232;29.132;2022-12-10T12:24:10;41.47;;;15.43;;
8944;SDS011;4507;40.232;29.132;2022-12-10T12:26:46;41.37;;;12.93;;
8944;SDS011;4507;40.232;29.132;2022-12-10T12:29:21;31.70;;;13.87;;
8944;SDS011;4507;40.232;29.132;2022-12-10T12:31:57;34.20;;;12.17;;
8944;SDS011;4507;40.232;29.132;2022-12-10T12:34:33;34.83;;;13.80;;
8944;SDS011;4507;40.232;29.132;2022-12-10T12:37:14;41.40;;;22.60;;
8944;SDS011;4507;40.232;29.132;2022-12-10T12:39:48;61.07;;;33.73;;
8944;SDS011;4507;40.232;29.132;2022-12-10T12:42:46;82.87;;;39.47;;
8944;SDS011;4507;40.232;29.132;2022-12-10T12:45:21;93.17;;;57.03;;
8944;SDS011;4507;40.232;29.132;2022-12-10T12:48:01;82.70;;;51.97;;
8944;SDS011;4507;40.232;29.132;2022-12-10T12:50:40;62.37;;;40.60;;
8944;SDS011;4507;40.232;29.132;2022-12-10T12:53:13;71.93;;;47.97;;
8944;SDS011;4507;40.232;29.132;2022-12-10T12:55:45;58.40;;;36.47;;
8944;SDS011;4507;40.232;29.132;2022-12-10T12:58:24;52.67;;;21.97;;
8944;SDS011;4507;40.232;29.132;2022-12-10T13:01:00;44.30;;;18.37;;
8944;SDS011;4507;40.232;29.132;2022-12-10T13:04:00;34.47;;;19.00;;
8944;SDS011;4507;40.232;29.132;2022-12-10T13:06:31;68.73;;;35.43;;
8944;SDS011;4507;40.232;29.132;2022-12-10T13:15:14;33.70;;;13.27;;
8944;SDS011;4507;40.232;29.132;2022-12-10T13:18:17;35.77;;;11.90;;
8944;SDS011;4507;40.232;29.132;2022-12-10T13:20:50;33.53;;;10.37;;
8944;SDS011;4507;40.232;29.132;2022-12-10T13:23:47;41.10;;;11.43;;
8944;SDS011;4507;40.232;29.132;2022-12-10T13:26:23;42.90;;;12.60;;
8944;SDS011;4507;40.232;29.132;2022-12-10T13:29:19;55.87;;;14.33;;
8944;SDS011;4507;40.232;29.132;2022-12-10T13:32:00;25.90;;;11.37;;
8944;SDS011;4507;40.232;29.132;2022-12-10T13:34:33;87.07;;;13.20;;
8944;SDS011;4507;40.232;29.132;2022-12-10T13:37:06;23.90;;;8.87;;
8944;SDS011;4507;40.232;29.132;2022-12-10T13:39:47;35.53;;;9.40;;
8944;SDS011;4507;40.232;29.132;2022-12-10T13:42:28;32.10;;;10.23;;
8944;SDS011;4507;40.232;29.132;2022-12-10T13:45:28;65.47;;;22.83;;
8944;SDS011;4507;40.232;29.132;2022-12-10T13:51:04;36.17;;;15.30;;
8944;SDS011;4507;40.232;29.132;2022-12-10T13:53:59;41.83;;;12.80;;
8944;SDS011;4507;40.232;29.132;2022-12-10T13:56:49;40.47;;;14.27;;
8944;SDS011;4507;40.232;29.132;2022-12-10T13:59:28;24.23;;;8.77;;
8944;SDS011;4507;40.232;29.132;2022-12-10T14:02:19;44.27;;;9.50;;
8944;SDS011;4507;40.232;29.132;2022-12-10T14:08:08;62.83;;;34.50;;
8944;SDS011;4507;40.232;29.132;2022-12-10T14:10:42;54.57;;;29.57;;
8944;SDS011;4507;40.232;29.132;2022-12-10T14:13:15;31.00;;;12.90;;
8944;SDS011;4507;40.232;29.132;2022-12-10T14:15:51;32.53;;;22.20;;
8944;SDS011;4507;40.232;29.132;2022-12-10T14:18:41;52.77;;;21.00;;
8944;SDS011;4507;40.232;29.132;2022-12-10T14:21:14;102.47;;;65.67;;
8944;SDS011;4507;40.232;29.132;2022-12-10T14:23:44;47.20;;;26.70;;
8944;SDS011;4507;40.232;29.132;2022-12-10T14:26:25;61.23;;;26.97;;
8944;SDS011;4507;40.232;29.132;2022-12-10T14:28:56;20.60;;;11.37;;
8944;SDS011;4507;40.232;29.132;2022-12-10T14:31:27;40.03;;;14.80;;
8944;SDS011;4507;40.232;29.132;2022-12-10T14:34:00;37.87;;;17.77;;
8944;SDS011;4507;40.232;29.132;2022-12-10T14:36:33;33.83;;;18.40;;
8944;SDS011;4507;40.232;29.132;2022-12-10T14:39:10;40.83;;;21.73;;
8944;SDS011;4507;40.232;29.132;2022-12-10T14:41:42;47.67;;;30.17;;
8944;SDS011;4507;40.232;29.132;2022-12-10T14:44:31;36.23;;;28.60;;
8944;SDS011;4507;40.232;29.132;2022-12-10T14:47:04;31.63;;;15.23;;
8944;SDS011;4507;40.232;29.132;2022-12-10T14:49:38;30.93;;;23.43;;
8944;SDS011;4507;40.232;29.132;2022-12-10T14:52:15;44.43;;;25.67;;
8944;SDS011;4507;40.232;29.132;2022-12-10T14:54:47;50.73;;;27.30;;
8944;SDS011;4507;40.232;29.132;2022-12-10T14:57:17;53.43;;;29.67;;
8944;SDS011;4507;40.232;29.132;2022-12-10T14:59:50;51.70;;;22.43;;
8944;SDS011;4507;40.232;29.132;2022-12-10T15:02:26;50.13;;;20.30;;
8944;SDS011;4507;40.232;29.132;2022-12-10T15:04:57;23.30;;;13.20;;
8944;SDS011;4507;40.232;29.132;2022-12-10T15:07:30;36.37;;;14.37;;
8944;SDS011;4507;40.232;29.132;2022-12-10T15:10:23;43.10;;;28.50;;
8944;SDS011;4507;40.232;29.132;2022-12-10T15:12:55;69.70;;;47.77;;
8944;SDS011;4507;40.232;29.132;2022-12-10T15:15:26;80.60;;;58.80;;
8944;SDS011;4507;40.232;29.132;2022-12-10T15:17:59;67.33;;;50.90;;
8944;SDS011;4507;40.232;29.132;2022-12-10T15:20:31;34.83;;;19.63;;
8944;SDS011;4507;40.232;29.132;2022-12-10T15:23:15;21.97;;;13.50;;
8944;SDS011;4507;40.232;29.132;2022-12-10T15:25:50;29.90;;;14.50;;
8944;SDS011;4507;40.232;29.132;2022-12-10T15:28:25;34.07;;;14.67;;